岡山グライダークラブ活動状況掲示板あなたは無料カウンター人目の訪問者です

岡山グライダークラブ
岡山市浦安南町639-1 岡南飛行場
 使用機:シャイベ式 SF25C型 ファルケ   JA2330
      ヴァレンティン式17E型 タイフーン  JA2342
 練習日:毎日曜日  クラブルーム:電話 086-265-1810
この掲示板は岡山グライダークラブの活動状況をお知らせする掲示板です。
!!!この掲示板は投稿規制をしています。!!!
クラブ関連各種情報は 岡山グライダークラブクラブルーム      を       .
  ブリーフイング情報は  岡山グライダークラブブリーフィングルーム  をご覧下さい。 .
※写真はクリックすると拡大して見ることが出来ます。
岡南飛行場へのアクセス等は 岡南飛行場管理事務所 をご覧ください。
クラブの ホームページ ができました。

 
12月02日
by OGC at 2018/12/2(日) 19:24:46 No.20181202191714  削除コメント
1024 x 768 x 80,247バイト
No.1

12月02日
本日の参加者
  会員      11名
  その他      0名


@本日の様子




METAR
RJBK 020000Z 01003KT 340V080 20KM FEW020CU 09/06 Q1028 A3037
RKOB 020000Z 06007KT CAVOK 09/05 Q1027
RJOT 020000Z 09003KT 030V140 9999 FEW025 11/08 Q1027
RJOA 020000Z 07007KT 040V110 9999 FEW015 10/06 Q1027
TAF
RJOB 012307Z 0200/0306 10007KT 9999 FEW025
        BECMG 0215/0218 4000 -SHRA BR FEW002 BKN008 BKN015
        TEMPO 0218/0300 1500 -SHRA BR BCFG FEW000 BKN005 BKN008
RJOT 012307Z 0200/0306 06007KT 9999 FEW020 SCT050
RJOA 012305Z 0200/0306 12005KT 9999 FEW020 SCT045
        BECMG 0212/0215 3000 -SHRA BR BCFG FEW000 BKN008 BKN015
        TEMPO 0221/0303 1500 -SHRA BR BCFG FEW000 BKN005 BKN008

本日の天候は風も穏やかで訓練生にとって絶好の訓練日和。
ファルケとタイフーンはいつもの訓練フライトの合間に笠岡ふれあい空港の「空と大地のカーニバル」のイベントに参加してきました。



解散    17:00

1番機  11:05離陸 撤収機  16:30着陸 

SF25C JA2330 ファルケ     07Flt.3h40min  
17E   JA2342 タイフーン    02Flt.1h25min  
合計                    09Flt.5h05min

    << 戻る || ホームページ || 最新の掲示板へ